createdAt,value
2023-01-11T00:00:45.192Z,91357.41
2023-01-11T00:04:34.355Z,91365.36
2023-01-11T00:08:23.583Z,91376.44
2023-01-11T00:12:15.483Z,91372.52
2023-01-11T00:15:57.461Z,91370.65
2023-01-11T00:19:46.712Z,91372.89
2023-01-11T00:23:19.350Z,91372.84
2023-01-11T00:26:59.009Z,91372.23
2023-01-11T00:30:48.359Z,91378.75
2023-01-11T00:34:37.681Z,91379.05
2023-01-11T00:38:26.940Z,91382.14
2023-01-11T00:42:08.074Z,91390.33
2023-01-11T00:45:55.107Z,91402.52
2023-01-11T00:49:44.411Z,91410.14
2023-01-11T00:53:26.410Z,91431.68
2023-01-11T00:57:15.587Z,91433.91
2023-01-11T01:01:04.897Z,91441.05
2023-01-11T01:04:46.481Z,91439.73
2023-01-11T01:08:28.805Z,91435.55
2023-01-11T01:12:10.846Z,91433.84
2023-01-11T01:16:00.188Z,91435.04
2023-01-11T01:19:42.008Z,91441.98
2023-01-11T01:23:31.448Z,91442.42
2023-01-11T01:27:05.825Z,91433.83
2023-01-11T01:30:47.800Z,91439.00
2023-01-11T01:34:37.060Z,91438.17
2023-01-11T01:38:26.206Z,91442.81
2023-01-11T01:42:13.866Z,91444.89
2023-01-11T01:46:07.762Z,91438.88
2023-01-11T01:49:55.366Z,91443.30
2023-01-11T01:53:44.525Z,91450.45
2023-01-11T01:57:33.688Z,91459.71
2023-01-11T02:01:22.979Z,91464.34
2023-01-11T02:05:11.980Z,91470.59
2023-01-11T02:08:58.267Z,91475.54
2023-01-11T02:12:47.468Z,91468.95
2023-01-11T02:16:36.659Z,91468.14
2023-01-11T02:20:31.649Z,91464.13
2023-01-11T02:24:33.054Z,91481.81
2023-01-11T02:28:19.019Z,91492.63
2023-01-11T02:32:14.154Z,91495.54
2023-01-11T02:36:24.534Z,91495.70
2023-01-11T02:40:22.679Z,91495.18
2023-01-11T02:44:07.431Z,91492.66
2023-01-11T02:47:56.788Z,91494.02
2023-01-11T02:51:54.968Z,91494.31
2023-01-11T02:55:28.076Z,91502.01
2023-01-11T02:59:09.052Z,91504.54
2023-01-11T03:02:58.361Z,91495.17
2023-01-11T03:06:52.034Z,91496.16
2023-01-11T03:10:46.963Z,91508.97
2023-01-11T03:14:41.995Z,91513.70
2023-01-11T03:18:37.111Z,91516.46
2023-01-11T03:22:20.403Z,91514.15
2023-01-11T03:26:04.707Z,91509.33
2023-01-11T03:29:56.972Z,91501.60
2023-01-11T03:33:48.986Z,91509.10
2023-01-11T03:37:46.783Z,91520.93
2023-01-11T03:41:36.031Z,91526.54
2023-01-11T03:45:19.465Z,91523.91
2023-01-11T03:48:42.741Z,91533.25
2023-01-11T03:52:31.893Z,91537.95
2023-01-11T03:56:14.647Z,91545.39
2023-01-11T04:00:03.846Z,91546.30
2023-01-11T04:03:53.066Z,91559.63
2023-01-11T04:07:35.033Z,91558.94
2023-01-11T04:11:24.392Z,91568.38
2023-01-11T04:15:07.279Z,91571.09
2023-01-11T04:18:56.715Z,91569.81
2023-01-11T04:22:45.983Z,91564.52
2023-01-11T04:26:12.917Z,91563.55
2023-01-11T04:30:00.980Z,91559.14
2023-01-11T04:33:50.171Z,91558.69
2023-01-11T04:37:33.288Z,91563.09
2023-01-11T04:41:23.334Z,91558.30
2023-01-11T04:45:06.120Z,91562.66
2023-01-11T04:48:55.350Z,91562.58
2023-01-11T04:52:44.644Z,91571.50
2023-01-11T04:56:33.911Z,91580.20
2023-01-11T05:00:11.829Z,91591.34
2023-01-11T05:04:01.194Z,91600.85
2023-01-11T05:07:43.436Z,91602.80
2023-01-11T05:11:32.658Z,91600.48
2023-01-11T05:15:21.605Z,91605.05
2023-01-11T05:19:10.771Z,91606.61
2023-01-11T05:22:52.731Z,91605.16
2023-01-11T05:26:42.045Z,91609.71
2023-01-11T05:30:31.288Z,91612.38
2023-01-11T05:34:20.522Z,91612.35
2023-01-11T05:38:09.634Z,91623.08
2023-01-11T05:41:39.328Z,91630.00
2023-01-11T05:45:26.567Z,91635.64
2023-01-11T05:49:09.252Z,91644.40
2023-01-11T05:52:58.440Z,91648.14
2023-01-11T05:56:56.658Z,91654.13
2023-01-11T06:00:39.796Z,91661.02
2023-01-11T06:04:29.022Z,91671.50
2023-01-11T06:08:18.180Z,91676.66
2023-01-11T06:12:07.087Z,91679.13
2023-01-11T06:15:56.246Z,91689.88
2023-01-11T06:19:44.295Z,91688.30
2023-01-11T06:23:33.490Z,91690.94
2023-01-11T06:27:22.379Z,91690.63
2023-01-11T06:31:11.877Z,91694.89
2023-01-11T06:34:52.844Z,91695.33
2023-01-11T06:38:14.695Z,91700.26
2023-01-11T06:42:02.295Z,91702.73
2023-01-11T06:45:44.178Z,91704.67
2023-01-11T06:49:24.575Z,91708.27
2023-01-11T06:52:57.237Z,91698.40
2023-01-11T06:56:46.472Z,91704.02
2023-01-11T07:00:34.663Z,91695.54
2023-01-11T07:04:23.879Z,91693.37
2023-01-11T07:08:11.789Z,91695.77
2023-01-11T07:12:01.000Z,91710.66
2023-01-11T07:15:39.797Z,91702.60
2023-01-11T07:19:29.008Z,91697.75
2023-01-11T07:23:01.009Z,91725.74
2023-01-11T07:26:48.758Z,91728.88
2023-01-11T07:30:30.860Z,91730.36
2023-01-11T07:34:20.076Z,91726.02
2023-01-11T07:38:09.177Z,91733.37
2023-01-11T07:41:49.506Z,91728.43
2023-01-11T07:45:45.745Z,91727.33
2023-01-11T07:49:28.042Z,91722.84
2023-01-11T07:53:09.216Z,91728.31
2023-01-11T07:56:51.089Z,91723.23
2023-01-11T08:00:39.953Z,91730.33
2023-01-11T08:04:29.129Z,91722.92
2023-01-11T08:08:17.216Z,91750.91
2023-01-11T08:12:04.626Z,91746.51
2023-01-11T08:15:53.830Z,91762.60
2023-01-11T08:19:32.830Z,91757.21
2023-01-11T08:23:20.301Z,91760.50
2023-01-11T08:27:00.460Z,91768.66
2023-01-11T08:30:58.547Z,91758.70
2023-01-11T08:34:50.530Z,91755.55
2023-01-11T08:38:38.217Z,91768.48
2023-01-11T08:42:27.189Z,91773.65
2023-01-11T08:46:16.109Z,91775.29
2023-01-11T08:50:05.047Z,91779.63
2023-01-11T08:53:54.426Z,91775.20
2023-01-11T08:57:36.121Z,91785.25
2023-01-11T09:01:25.077Z,91784.88
2023-01-11T09:05:05.732Z,91787.98
2023-01-11T09:08:57.942Z,91787.42
2023-01-11T09:12:33.421Z,91793.86
2023-01-11T09:16:15.134Z,91781.64
2023-01-11T09:20:04.267Z,91796.02
2023-01-11T09:23:45.729Z,91791.85
2023-01-11T09:27:28.417Z,91795.60
2023-01-11T09:31:17.767Z,91796.97
2023-01-11T09:35:06.964Z,91805.43
2023-01-11T09:38:56.095Z,91805.69
2023-01-11T09:42:35.017Z,91795.48
2023-01-11T09:46:15.692Z,91788.30
2023-01-11T09:50:07.288Z,91793.19
2023-01-11T09:53:50.430Z,91782.42
2023-01-11T09:57:51.075Z,91781.64
2023-01-11T10:02:04.184Z,91785.61
2023-01-11T10:05:51.443Z,91783.34
2023-01-11T10:18:35.337Z,91789.15
2023-01-11T10:22:19.732Z,91799.63
2023-01-11T10:26:16.066Z,91803.27
2023-01-11T10:30:35.113Z,91805.73
2023-01-11T10:34:20.904Z,91807.44
2023-01-11T10:38:24.695Z,91795.02
2023-01-11T10:42:12.363Z,91796.06
2023-01-11T10:46:01.654Z,91797.25
2023-01-11T10:49:41.801Z,91810.48
2023-01-11T10:53:29.434Z,91804.48
2023-01-11T10:57:17.306Z,91807.48
2023-01-11T11:01:27.512Z,91803.98
2023-01-11T11:05:34.258Z,91791.14
2023-01-11T11:09:34.214Z,91784.02
2023-01-11T11:13:23.364Z,91785.55
2023-01-11T11:17:33.364Z,91785.06
2023-01-11T11:21:05.121Z,91791.83
2023-01-11T11:24:33.383Z,91784.85
2023-01-11T11:27:37.476Z,91789.94
2023-01-11T11:31:32.468Z,91790.36
2023-01-11T11:35:14.239Z,91799.73
2023-01-11T11:38:53.007Z,91794.23
2023-01-11T11:42:50.590Z,91798.66
2023-01-11T11:46:41.170Z,91799.24
2023-01-11T11:50:44.781Z,91811.83
2023-01-11T11:54:34.735Z,91815.48
2023-01-11T11:58:13.269Z,91811.22
2023-01-11T12:02:02.241Z,91816.04
2023-01-11T12:05:51.665Z,91808.65
2023-01-11T12:09:27.670Z,91802.45
2023-01-11T12:13:16.882Z,91804.60
2023-01-11T12:17:06.096Z,91796.27
2023-01-11T12:21:04.056Z,91797.59
2023-01-11T12:24:56.039Z,91795.39
2023-01-11T12:29:06.095Z,91791.26
2023-01-11T12:32:54.606Z,91794.53
2023-01-11T12:36:46.538Z,91789.58
2023-01-11T12:40:42.891Z,91776.13
2023-01-11T12:44:43.882Z,91769.53
2023-01-11T12:48:57.504Z,91772.23
2023-01-11T12:53:04.916Z,91773.61
2023-01-11T12:57:03.243Z,91773.11
2023-01-11T13:01:01.357Z,91769.45
2023-01-11T13:05:11.243Z,91776.70
2023-01-11T13:09:01.814Z,91778.94
2023-01-11T13:12:49.017Z,91793.39
2023-01-11T13:16:38.920Z,91793.61
2023-01-11T13:20:59.494Z,91799.19
2023-01-11T13:24:55.902Z,91801.91
2023-01-11T13:28:45.034Z,91807.84
2023-01-11T13:32:37.172Z,91808.73
2023-01-11T13:36:23.782Z,91817.36
2023-01-11T13:40:13.286Z,91826.63
2023-01-11T13:44:08.189Z,91825.14
2023-01-11T13:47:57.448Z,91819.45
2023-01-11T13:51:55.273Z,91823.42
2023-01-11T13:55:53.682Z,91834.94
2023-01-11T13:59:45.983Z,91834.19
2023-01-11T14:03:35.294Z,91839.29
2023-01-11T14:07:33.282Z,91838.14
2023-01-11T14:11:25.576Z,91827.52
2023-01-11T14:15:22.668Z,91822.63
2023-01-11T14:19:17.938Z,91816.12
2023-01-11T14:23:18.768Z,91814.85
2023-01-11T14:27:15.409Z,91821.21
2023-01-11T14:31:07.505Z,91830.87
2023-01-11T14:34:53.531Z,91827.17
2023-01-11T14:38:47.345Z,91826.94
2023-01-11T14:42:37.002Z,91831.23
2023-01-11T14:46:34.833Z,91829.02
2023-01-11T14:50:25.403Z,91831.25
2023-01-11T14:54:14.654Z,91812.33
2023-01-11T14:58:18.853Z,91823.61
2023-01-11T15:02:07.857Z,91827.39
2023-01-11T15:06:11.874Z,91831.70
2023-01-11T15:09:59.133Z,91829.23
2023-01-11T15:13:48.249Z,91833.00
2023-01-11T15:17:35.231Z,91844.23
2023-01-11T15:21:36.194Z,91845.73
2023-01-11T15:25:28.210Z,91847.86
2023-01-11T15:29:18.665Z,91847.30
2023-01-11T15:33:07.918Z,91854.42
2023-01-11T15:36:57.224Z,91850.73
2023-01-11T15:40:55.335Z,91846.34
2023-01-11T15:45:02.696Z,91843.39
2023-01-11T15:49:16.012Z,91842.22
2023-01-11T15:53:18.488Z,91840.80
2023-01-11T15:57:21.687Z,91838.41
2023-01-11T16:01:23.131Z,91836.23
2023-01-11T16:05:21.449Z,91837.52
2023-01-11T16:09:09.370Z,91828.81
2023-01-11T16:13:04.563Z,91828.83
2023-01-11T16:17:11.880Z,91834.54
2023-01-11T16:21:01.163Z,91841.73
2023-01-11T16:24:50.392Z,91857.14
2023-01-11T16:28:39.527Z,91860.58
2023-01-11T16:32:37.739Z,91866.34
2023-01-11T16:36:26.879Z,91880.48
2023-01-11T16:40:16.101Z,91897.33
2023-01-11T16:43:59.933Z,91897.15
2023-01-11T16:47:47.241Z,91897.59
2023-01-11T16:51:42.001Z,91895.59
2023-01-11T16:55:31.157Z,91893.86
2023-01-11T16:59:24.339Z,91894.25
2023-01-11T17:03:01.507Z,91896.73
2023-01-11T17:06:53.459Z,91890.25
2023-01-11T17:10:33.739Z,91900.02
2023-01-11T17:14:40.858Z,91905.55
2023-01-11T17:18:30.129Z,91911.36
2023-01-11T17:22:18.000Z,91902.14
2023-01-11T17:26:14.435Z,91903.00
2023-01-11T17:30:02.290Z,91898.10
2023-01-11T17:33:57.419Z,91914.46
2023-01-11T17:37:46.659Z,91912.46
2023-01-11T17:41:34.298Z,91921.71
2023-01-11T17:45:34.711Z,91918.11
2023-01-11T17:49:33.496Z,91916.57
2023-01-11T17:53:22.643Z,91911.36
2023-01-11T17:57:14.495Z,91905.37
2023-01-11T18:01:04.107Z,91898.25
2023-01-11T18:04:58.994Z,91894.11
2023-01-11T18:08:39.212Z,91905.08
2023-01-11T18:12:40.679Z,91909.05
2023-01-11T18:16:33.121Z,91923.55
2023-01-11T18:20:21.228Z,91925.73
2023-01-11T18:24:13.297Z,91929.37
2023-01-11T18:28:05.226Z,91914.66
2023-01-11T18:31:53.079Z,91912.20
2023-01-11T18:35:42.225Z,91918.58
2023-01-11T18:39:31.434Z,91922.34
2023-01-11T18:43:20.762Z,91911.13
2023-01-11T18:47:09.988Z,91906.23
2023-01-11T18:50:59.431Z,91896.48
2023-01-11T18:54:48.828Z,91872.95
2023-01-11T18:58:38.092Z,91854.40
2023-01-11T19:06:06.045Z,91851.36
2023-01-11T19:09:53.805Z,91857.20
2023-01-11T19:13:41.901Z,91872.67
2023-01-11T19:17:31.171Z,91878.02
2023-01-11T19:21:20.208Z,91878.89
2023-01-11T19:25:09.542Z,91875.27
2023-01-11T19:28:58.829Z,91880.20
2023-01-11T19:32:48.069Z,91891.77
2023-01-11T19:36:37.263Z,91899.08
2023-01-11T19:40:26.439Z,91899.48
2023-01-11T19:44:14.439Z,91903.08
2023-01-11T19:48:03.621Z,91921.27
2023-01-11T19:51:52.605Z,91910.33
2023-01-11T19:55:44.771Z,91906.81
2023-01-11T19:59:26.846Z,91908.85
2023-01-11T20:03:15.871Z,91909.98
2023-01-11T20:07:05.187Z,91915.45
2023-01-11T20:10:54.388Z,91922.91
2023-01-11T20:14:43.661Z,91920.17
2023-01-11T20:18:32.971Z,91924.98
2023-01-11T20:22:22.102Z,91924.73
2023-01-11T20:26:10.137Z,91921.85
2023-01-11T20:29:59.776Z,91906.18
2023-01-11T20:33:49.040Z,91897.03
2023-01-11T20:37:38.322Z,91908.40
2023-01-11T20:41:27.634Z,91914.25
2023-01-11T20:45:22.837Z,91924.65
2023-01-11T20:49:12.039Z,91933.67
2023-01-11T20:53:01.214Z,91932.80
2023-01-11T20:56:32.999Z,91923.45
2023-01-11T21:00:04.703Z,91919.99
2023-01-11T21:03:53.956Z,91923.56
2023-01-11T21:07:43.160Z,91931.30
2023-01-11T21:11:25.551Z,91930.64
2023-01-11T21:15:15.015Z,91929.02
2023-01-11T21:18:57.053Z,91925.67
2023-01-11T21:22:46.315Z,91924.80
2023-01-11T21:26:35.533Z,91926.88
2023-01-11T21:30:24.784Z,91929.62
2023-01-11T21:34:13.023Z,91934.02
2023-01-11T21:38:02.216Z,91928.90
2023-01-11T21:41:52.247Z,91919.27
2023-01-11T21:45:24.936Z,91916.13
2023-01-11T21:49:12.745Z,91914.84
2023-01-11T21:52:54.651Z,91903.33
2023-01-11T21:56:43.909Z,91902.52
2023-01-11T22:00:33.231Z,91900.39
2023-01-11T22:04:22.639Z,91906.23
2023-01-11T22:08:11.818Z,91909.02
2023-01-11T22:12:01.142Z,91907.67
2023-01-11T22:15:50.520Z,91904.55
2023-01-11T22:19:39.782Z,91899.19
2023-01-11T22:23:29.089Z,91909.91
2023-01-11T22:27:18.096Z,91909.80
2023-01-11T22:30:59.702Z,91910.06
2023-01-11T22:34:48.900Z,91915.49
2023-01-11T22:38:38.281Z,91914.88
2023-01-11T22:42:27.445Z,91910.70
2023-01-11T22:46:16.712Z,91900.42
2023-01-11T22:50:05.944Z,91891.10
2023-01-11T22:53:55.270Z,91883.15
2023-01-11T22:57:44.456Z,91873.29
2023-01-11T23:01:33.844Z,91874.13
2023-01-11T23:05:23.085Z,91892.34
2023-01-11T23:09:14.152Z,91911.62
2023-01-11T23:13:03.082Z,91926.02
2023-01-11T23:16:52.391Z,91927.39
2023-01-11T23:20:41.672Z,91921.65
2023-01-11T23:24:30.579Z,91933.43
2023-01-11T23:28:12.296Z,91930.73
2023-01-11T23:32:01.543Z,91929.81
2023-01-11T23:35:50.720Z,91918.44
2023-01-11T23:39:39.689Z,91903.42
2023-01-11T23:43:28.841Z,91888.77
2023-01-11T23:47:16.479Z,91861.03
2023-01-11T23:51:05.502Z,91863.04
2023-01-11T23:54:46.808Z,91859.71
2023-01-11T23:58:36.093Z,91863.16
